createdAt,value
2022-09-21T00:00:28.442Z,7.10
2022-09-21T00:03:30.321Z,4.70
2022-09-21T00:06:34.314Z,4.70
2022-09-21T00:09:36.216Z,4.80
2022-09-21T00:12:38.253Z,4.80
2022-09-21T00:15:40.164Z,6.40
2022-09-21T00:21:44.317Z,4.60
2022-09-21T00:24:46.219Z,4.70
2022-09-21T00:27:48.092Z,4.60
2022-09-21T00:33:52.847Z,4.70
2022-09-21T00:36:54.707Z,4.70
2022-09-21T00:39:56.938Z,4.70
2022-09-21T00:43:16.021Z,4.70
2022-09-21T00:46:25.625Z,4.70
2022-09-21T00:49:28.008Z,4.60
2022-09-21T00:52:31.012Z,4.60
2022-09-21T00:55:37.227Z,4.60
2022-09-21T00:58:48.130Z,4.50
2022-09-21T01:01:50.904Z,4.30
2022-09-21T01:04:53.545Z,4.30
2022-09-21T01:07:58.266Z,4.40
2022-09-21T01:11:06.088Z,4.50
2022-09-21T01:14:39.520Z,4.50
2022-09-21T01:17:52.972Z,4.40
2022-09-21T01:21:10.544Z,6.10
2022-09-21T01:24:30.957Z,4.30
2022-09-21T01:27:52.991Z,4.20
2022-09-21T01:30:59.662Z,4.20
2022-09-21T01:34:08.676Z,5.80
2022-09-21T01:37:25.491Z,6.70
2022-09-21T01:40:43.297Z,4.20
2022-09-21T01:43:53.658Z,4.10
2022-09-21T01:46:57.711Z,7.60
2022-09-21T01:50:02.723Z,4.10
2022-09-21T01:53:04.529Z,7.60
2022-09-21T01:56:13.527Z,4.00
2022-09-21T01:59:28.083Z,4.20
2022-09-21T02:02:48.856Z,4.20
2022-09-21T02:05:50.824Z,4.20
2022-09-21T02:08:53.449Z,4.10
2022-09-21T02:11:55.308Z,4.20
2022-09-21T02:14:57.895Z,4.10
2022-09-21T02:18:12.917Z,4.10
2022-09-21T02:21:51.973Z,4.10
2022-09-21T02:25:09.804Z,4.10
2022-09-21T02:28:32.757Z,3.80
2022-09-21T02:32:02.966Z,3.70
2022-09-21T02:35:36.775Z,3.80
2022-09-21T02:38:53.626Z,4.00
2022-09-21T02:42:05.694Z,4.00
2022-09-21T02:45:20.194Z,3.90
2022-09-21T02:48:30.535Z,3.90
2022-09-21T02:51:36.993Z,3.80
2022-09-21T02:54:41.149Z,3.80
2022-09-21T02:57:43.541Z,3.80
2022-09-21T03:00:45.645Z,3.70
2022-09-21T03:03:47.868Z,3.70
2022-09-21T03:06:49.726Z,3.90
2022-09-21T03:09:51.541Z,5.40
2022-09-21T03:12:57.176Z,3.60
2022-09-21T03:16:05.045Z,3.60
2022-09-21T03:19:07.082Z,3.60
2022-09-21T03:22:08.942Z,6.30
2022-09-21T03:28:13.791Z,3.60
2022-09-21T03:31:16.108Z,3.50
2022-09-21T03:34:17.893Z,3.50
2022-09-21T03:37:19.691Z,3.60
2022-09-21T03:40:21.605Z,3.50
2022-09-21T03:43:23.748Z,3.50
2022-09-21T03:46:25.625Z,3.40
2022-09-21T03:49:27.503Z,3.30
2022-09-21T03:52:29.390Z,5.20
2022-09-21T03:55:31.366Z,3.40
2022-09-21T03:58:33.211Z,3.50
2022-09-21T04:01:35.080Z,3.60
2022-09-21T04:04:36.934Z,3.70
2022-09-21T04:07:38.803Z,3.70
2022-09-21T04:10:40.691Z,3.50
2022-09-21T04:13:43.041Z,3.40
2022-09-21T04:16:44.934Z,3.30
2022-09-21T04:19:46.831Z,3.20
2022-09-21T04:22:48.878Z,3.30
2022-09-21T04:25:50.748Z,3.40
2022-09-21T04:28:53.679Z,3.30
2022-09-21T04:31:55.544Z,3.20
2022-09-21T04:34:57.441Z,3.30
2022-09-21T04:37:59.298Z,6.80
2022-09-21T04:41:01.186Z,4.10
2022-09-21T04:44:03.129Z,3.50
2022-09-21T04:47:05.095Z,3.50
2022-09-21T04:50:07.531Z,3.40
2022-09-21T04:53:09.429Z,3.50
2022-09-21T04:56:14.489Z,3.60
2022-09-21T05:02:18.732Z,3.60
2022-09-21T05:05:20.612Z,5.90
2022-09-21T05:08:24.228Z,3.70
2022-09-21T05:11:26.149Z,3.80
2022-09-21T05:14:27.989Z,3.80
2022-09-21T05:17:30.159Z,3.90
2022-09-21T05:20:32.010Z,6.70
2022-09-21T05:23:34.420Z,3.80
2022-09-21T05:26:36.179Z,3.80
2022-09-21T05:29:39.426Z,4.00
2022-09-21T05:32:53.104Z,4.20
2022-09-21T05:36:14.033Z,4.10
2022-09-21T05:39:16.203Z,4.30
2022-09-21T05:42:18.328Z,4.50
2022-09-21T05:45:20.645Z,4.50
2022-09-21T05:48:38.973Z,5.00
2022-09-21T05:51:57.747Z,4.90
2022-09-21T05:55:23.677Z,5.30
2022-09-21T05:58:49.464Z,5.40
2022-09-21T06:02:24.372Z,5.50
2022-09-21T06:05:26.482Z,5.70
2022-09-21T06:08:28.888Z,5.60
2022-09-21T06:11:31.001Z,5.60
2022-09-21T06:17:35.043Z,6.00
2022-09-21T06:20:37.098Z,6.10
2022-09-21T06:23:39.012Z,6.20
2022-09-21T06:26:40.881Z,6.40
2022-09-21T06:32:45.035Z,6.70
2022-09-21T06:35:58.230Z,6.80
2022-09-21T06:39:00.105Z,7.20
2022-09-21T06:42:01.974Z,7.40
2022-09-21T06:48:06.204Z,7.70
2022-09-21T06:54:10.340Z,8.10
2022-09-21T06:57:12.229Z,8.30
2022-09-21T07:00:14.730Z,8.60
2022-09-21T07:03:16.579Z,8.70
2022-09-21T07:12:43.859Z,9.20
2022-09-21T07:15:46.895Z,9.40
2022-09-21T07:18:51.053Z,9.80
2022-09-21T07:24:58.297Z,11.30
2022-09-21T07:28:00.899Z,11.90
2022-09-21T07:31:11.649Z,12.50
2022-09-21T07:34:13.523Z,12.90
2022-09-21T07:43:26.730Z,13.70
2022-09-21T07:46:28.744Z,14.90
2022-09-21T07:49:30.625Z,16.20
2022-09-21T07:55:34.754Z,18.10
2022-09-21T07:58:37.615Z,18.90
2022-09-21T08:01:41.688Z,18.90
2022-09-21T08:04:43.516Z,18.90
2022-09-21T08:07:45.467Z,18.90
2022-09-21T08:13:53.662Z,19.10
2022-09-21T08:16:55.647Z,19.40
2022-09-21T08:19:57.585Z,18.70
2022-09-21T08:22:59.434Z,18.30
2022-09-21T08:26:02.833Z,19.00
2022-09-21T08:32:07.078Z,18.70
2022-09-21T08:35:09.515Z,19.50
2022-09-21T08:38:11.372Z,20.30
2022-09-21T08:44:47.514Z,21.80
2022-09-21T08:47:52.651Z,21.10
2022-09-21T08:50:57.169Z,22.20
2022-09-21T08:54:10.832Z,21.20
2022-09-21T08:57:17.341Z,20.40
2022-09-21T09:00:20.138Z,20.40
2022-09-21T09:03:32.749Z,20.60
2022-09-21T09:06:37.663Z,20.70
2022-09-21T09:09:57.174Z,21.50
2022-09-21T09:13:06.968Z,21.50
2022-09-21T09:16:23.435Z,19.90
2022-09-21T09:20:14.463Z,19.40
2022-09-21T09:23:28.476Z,18.60
2022-09-21T09:26:44.211Z,20.10
2022-09-21T09:30:03.690Z,20.10
2022-09-21T09:33:15.814Z,20.00
2022-09-21T09:36:30.103Z,20.20
2022-09-21T09:39:41.699Z,21.20
2022-09-21T09:43:30.576Z,20.70
2022-09-21T09:47:06.847Z,20.90
2022-09-21T09:50:29.904Z,21.20
2022-09-21T09:53:32.133Z,21.90
2022-09-21T09:56:34.028Z,21.20
2022-09-21T09:59:53.998Z,20.60
2022-09-21T10:02:58.416Z,20.90
2022-09-21T10:06:00.762Z,20.80
2022-09-21T10:09:24.282Z,21.20
2022-09-21T10:12:26.650Z,21.80
2022-09-21T10:15:29.755Z,22.00
2022-09-21T10:18:58.763Z,21.20
2022-09-21T10:22:03.910Z,20.70
2022-09-21T10:25:06.911Z,20.60
2022-09-21T10:28:13.553Z,20.40
2022-09-21T10:31:22.656Z,18.70
2022-09-21T10:34:27.103Z,18.70
2022-09-21T10:37:32.301Z,20.00
2022-09-21T10:40:37.716Z,20.00
2022-09-21T10:43:43.988Z,18.70
2022-09-21T10:46:48.890Z,18.70
2022-09-21T10:49:54.406Z,19.90
2022-09-21T10:53:11.970Z,19.90
2022-09-21T10:56:16.391Z,20.70
2022-09-21T10:59:37.334Z,20.50
2022-09-21T11:05:42.930Z,21.20
2022-09-21T11:08:58.232Z,21.70
2022-09-21T11:12:24.153Z,22.30
2022-09-21T11:15:44.436Z,22.40
2022-09-21T11:22:07.278Z,21.60
2022-09-21T11:25:46.420Z,21.20
2022-09-21T11:28:57.518Z,19.40
2022-09-21T11:32:16.452Z,19.30
2022-09-21T11:35:42.886Z,19.90
2022-09-21T11:39:04.531Z,20.30
2022-09-21T11:42:45.268Z,21.60
2022-09-21T11:46:30.278Z,21.90
2022-09-21T11:50:07.661Z,21.80
2022-09-21T11:53:25.227Z,20.60
2022-09-21T11:56:46.254Z,22.00
2022-09-21T12:00:15.065Z,22.00
2022-09-21T12:03:50.803Z,23.00
2022-09-21T12:16:22.183Z,23.40
2022-09-21T12:22:34.638Z,23.30
2022-09-21T12:25:43.335Z,23.00
2022-09-21T12:28:53.383Z,21.70
2022-09-21T12:32:21.678Z,21.00
2022-09-21T12:35:35.565Z,20.00
2022-09-21T12:38:50.130Z,19.20
2022-09-21T12:42:07.343Z,18.50
2022-09-21T12:45:28.073Z,19.10
2022-09-21T12:48:38.061Z,19.10
2022-09-21T12:51:47.538Z,21.10
2022-09-21T12:58:24.257Z,20.60
2022-09-21T13:01:37.551Z,19.50
2022-09-21T13:05:01.032Z,19.40
2022-09-21T13:08:17.126Z,18.90
2022-09-21T13:11:21.098Z,18.50
2022-09-21T13:14:27.216Z,18.40
2022-09-21T13:17:31.786Z,18.40
2022-09-21T13:20:36.652Z,18.10
2022-09-21T13:23:40.415Z,18.00
2022-09-21T13:26:54.319Z,19.00
2022-09-21T13:30:19.610Z,19.90
2022-09-21T13:33:21.431Z,20.00
2022-09-21T13:36:35.349Z,20.90
2022-09-21T13:39:43.478Z,21.10
2022-09-21T13:42:48.638Z,20.50
2022-09-21T13:45:55.955Z,19.00
2022-09-21T13:49:01.176Z,18.90
2022-09-21T13:55:14.791Z,19.10
2022-09-21T13:58:23.917Z,20.00
2022-09-21T14:04:50.728Z,20.80
2022-09-21T14:08:14.523Z,19.90
2022-09-21T14:11:27.963Z,19.80
2022-09-21T14:14:38.712Z,19.20
2022-09-21T14:21:10.215Z,18.40
2022-09-21T14:24:41.767Z,19.90
2022-09-21T14:27:46.275Z,19.90
2022-09-21T14:31:16.207Z,20.80
2022-09-21T14:34:23.994Z,21.50
2022-09-21T14:37:33.279Z,21.30
2022-09-21T14:40:38.273Z,21.20
2022-09-21T14:43:40.251Z,21.30
2022-09-21T14:52:58.328Z,19.90
2022-09-21T14:56:21.746Z,19.90
2022-09-21T15:02:34.494Z,20.70
2022-09-21T15:05:43.535Z,20.60
2022-09-21T15:09:07.089Z,20.60
2022-09-21T15:12:17.297Z,20.20
2022-09-21T15:18:22.258Z,19.00
2022-09-21T15:21:27.608Z,18.50
2022-09-21T15:24:32.192Z,18.30
2022-09-21T15:27:35.449Z,18.60
2022-09-21T15:30:43.014Z,18.80
2022-09-21T15:39:59.403Z,16.80
2022-09-21T15:43:19.302Z,15.60
2022-09-21T15:49:24.715Z,15.40
2022-09-21T15:52:40.831Z,15.40
2022-09-21T15:55:47.590Z,15.30
2022-09-21T15:58:50.129Z,15.20
2022-09-21T16:01:55.970Z,15.10
2022-09-21T16:04:57.928Z,15.10
2022-09-21T16:08:16.565Z,14.90
2022-09-21T16:11:38.665Z,14.90
2022-09-21T16:14:47.658Z,14.70
2022-09-21T16:18:03.945Z,14.70
2022-09-21T16:21:16.236Z,14.60
2022-09-21T16:24:21.188Z,14.40
2022-09-21T16:27:31.305Z,13.90
2022-09-21T16:30:50.205Z,13.60
2022-09-21T16:36:57.096Z,13.10
2022-09-21T16:39:59.670Z,12.60
2022-09-21T16:52:08.521Z,11.80
2022-09-21T17:01:18.930Z,11.10
2022-09-21T17:04:22.643Z,10.90
2022-09-21T17:07:24.494Z,10.80
2022-09-21T17:10:33.965Z,10.60
2022-09-21T17:13:35.776Z,10.60
2022-09-21T17:19:39.887Z,10.30
2022-09-21T17:28:46.584Z,9.80
2022-09-21T17:31:51.439Z,9.80
2022-09-21T17:35:15.720Z,9.60
2022-09-21T17:38:17.594Z,9.60
2022-09-21T17:41:29.286Z,9.60
2022-09-21T17:50:45.152Z,9.10
2022-09-21T17:53:47.270Z,8.90
2022-09-21T17:56:57.082Z,8.80
2022-09-21T18:00:09.883Z,8.90
2022-09-21T18:03:21.992Z,8.80
2022-09-21T18:06:24.102Z,8.70
2022-09-21T18:09:26.330Z,8.70
2022-09-21T18:19:16.173Z,8.40
2022-09-21T18:25:32.751Z,8.10
2022-09-21T18:28:46.707Z,8.00
2022-09-21T18:32:19.426Z,8.00
2022-09-21T18:38:40.374Z,7.70
2022-09-21T18:42:00.746Z,7.70
2022-09-21T18:45:10.137Z,7.50
2022-09-21T18:48:31.065Z,7.50
2022-09-21T18:51:46.731Z,7.50
2022-09-21T18:57:51.412Z,7.40
2022-09-21T19:03:56.393Z,7.50
2022-09-21T19:07:11.447Z,7.60
2022-09-21T19:10:25.516Z,7.40
2022-09-21T19:13:42.493Z,7.40
2022-09-21T19:17:09.192Z,7.50
2022-09-21T19:26:33.962Z,7.20
2022-09-21T19:30:11.031Z,7.10
2022-09-21T19:33:48.500Z,7.20
2022-09-21T19:36:47.456Z,7.00
2022-09-21T19:39:49.520Z,6.90
2022-09-21T19:49:13.691Z,6.60
2022-09-21T19:52:18.276Z,6.60
2022-09-21T19:55:21.565Z,6.40
2022-09-21T19:58:23.707Z,6.20
2022-09-21T20:01:25.705Z,6.30
2022-09-21T20:04:40.787Z,6.30
2022-09-21T20:08:01.992Z,6.20
2022-09-21T20:14:23.517Z,6.10
2022-09-21T20:17:34.954Z,6.30
2022-09-21T20:20:37.008Z,6.30
2022-09-21T20:23:39.311Z,6.10
2022-09-21T20:26:42.469Z,6.10
2022-09-21T20:29:46.718Z,6.10
2022-09-21T20:32:53.206Z,6.00
2022-09-21T20:35:55.089Z,6.00
2022-09-21T20:38:56.941Z,5.90
2022-09-21T20:45:01.129Z,5.70
2022-09-21T20:48:03.116Z,5.70
2022-09-21T20:51:05.069Z,5.60
2022-09-21T20:54:07.067Z,5.60
2022-09-21T21:00:14.025Z,5.50
2022-09-21T21:03:15.873Z,5.50
2022-09-21T21:06:18.434Z,5.70
2022-09-21T21:09:20.391Z,5.70
2022-09-21T21:12:22.408Z,5.70
2022-09-21T21:18:26.993Z,5.60
2022-09-21T21:21:28.843Z,5.70
2022-09-21T21:24:30.726Z,5.60
2022-09-21T21:27:32.701Z,5.70
2022-09-21T22:08:40.985Z,4.70
2022-09-21T22:11:42.941Z,4.50
2022-09-21T22:17:47.022Z,4.60
2022-09-21T22:23:57.504Z,4.90
2022-09-21T22:26:59.519Z,4.90
2022-09-21T22:30:01.461Z,4.80
2022-09-21T22:33:03.767Z,4.70
2022-09-21T22:45:14.319Z,4.70
2022-09-21T22:51:19.289Z,4.70
2022-09-21T22:54:21.204Z,4.90
2022-09-21T22:57:23.060Z,4.90
2022-09-21T23:03:27.064Z,4.80
2022-09-21T23:06:32.316Z,4.70
2022-09-21T23:09:34.194Z,4.70
2022-09-21T23:15:38.286Z,4.70
2022-09-21T23:21:45.022Z,4.90
2022-09-21T23:24:46.959Z,4.90
2022-09-21T23:30:51.077Z,4.90
2022-09-21T23:33:54.592Z,4.80
2022-09-21T23:39:58.773Z,4.80
2022-09-21T23:55:10.074Z,4.70
